Time;durP1;ratioP1;P1;durP2;ratioP2;P2;SDS_P1;SDS_P2;PMS_P1;PMS_P2;Temp;Humidity;BMP_temperature;BMP_pressure;BME280_temperature;BME280_humidity;BME280_pressure;Samples;Min_cycle;Max_cycle;Signal;HPM_P1;HPM_P2
2022/04/15 00:01:24;;;;;;;8.75;5.10;;;;;;;12.55;36.07;99333.72;1722373;83;20943;-64
2022/04/15 00:03:51;;;;;;;5.90;5.30;;;;;;;12.54;36.15;99337.42;1708191;82;20958;-63
2022/04/15 00:06:19;;;;;;;8.78;5.50;;;;;;;12.51;36.24;99337.78;1702596;82;20968;-67
2022/04/15 00:08:45;;;;;;;7.60;5.58;;;;;;;12.49;36.30;99331.81;1718214;83;21149;-67
2022/04/15 00:11:14;;;;;;;8.73;5.12;;;;;;;12.46;36.39;99329.52;1701477;83;21607;-64
2022/04/15 00:13:41;;;;;;;8.20;5.28;;;;;;;12.43;36.46;99320.04;1714183;83;20970;-65
2022/04/15 00:16:08;;;;;;;7.05;5.00;;;;;;;12.39;36.57;99325.41;1716284;82;21017;-64
2022/04/15 00:18:37;;;;;;;8.10;5.25;;;;;;;12.36;36.64;99329.28;1713133;82;20958;-65
2022/04/15 00:21:03;;;;;;;7.90;5.58;;;;;;;12.33;36.70;99327.51;1713973;83;21148;-65
2022/04/15 00:23:30;;;;;;;8.95;5.45;;;;;;;12.32;36.77;99327.17;1713099;82;21485;-67
2022/04/15 00:25:59;;;;;;;7.97;5.55;;;;;;;12.29;36.86;99316.37;1717688;82;21015;-66
2022/04/15 00:28:26;;;;;;;7.15;5.35;;;;;;;12.28;36.96;99319.20;1703804;82;20940;-66
2022/04/15 00:30:53;;;;;;;9.18;5.83;;;;;;;12.25;37.06;99318.27;1713713;82;21012;-64
2022/04/15 00:33:24;;;;;;;9.28;5.85;;;;;;;12.23;37.13;99318.92;1713226;82;20928;-66
2022/04/15 00:35:51;;;;;;;6.85;5.33;;;;;;;12.19;37.19;99314.48;1719257;82;20915;-67
2022/04/15 00:38:17;;;;;;;7.12;5.80;;;;;;;12.16;37.23;99308.19;1713597;82;20896;-66
2022/04/15 00:40:44;;;;;;;8.68;5.95;;;;;;;12.15;37.25;99314.52;1713612;82;21639;-65
2022/04/15 00:43:10;;;;;;;9.78;6.03;;;;;;;12.16;37.25;99313.52;1714125;83;20927;-65
2022/04/15 00:45:37;;;;;;;9.55;6.12;;;;;;;12.14;37.33;99304.89;1702764;83;21152;-65
2022/04/15 00:48:07;;;;;;;8.65;6.12;;;;;;;12.14;37.36;99304.89;1714187;83;21003;-63
2022/04/15 00:50:34;;;;;;;8.00;6.25;;;;;;;12.14;37.41;99304.05;1713194;82;21022;-65
2022/04/15 00:53:06;;;;;;;8.13;5.37;;;;;;;12.12;37.46;99302.88;1714085;83;20987;-67
2022/04/15 00:55:33;;;;;;;9.08;6.12;;;;;;;12.11;37.48;99299.91;1719764;82;21496;-66
2022/04/15 00:58:04;;;;;;;7.50;5.78;;;;;;;12.11;37.47;99303.91;1702871;83;21146;-67
2022/04/15 01:00:32;;;;;;;8.63;5.70;;;;;;;12.12;37.46;99297.55;1713994;83;20961;-68
2022/04/15 01:03:02;;;;;;;7.30;6.08;;;;;;;12.11;37.55;99296.41;1714635;82;21064;-65
2022/04/15 01:05:29;;;;;;;11.40;6.10;;;;;;;12.09;37.63;99296.61;1708435;82;21492;-67
2022/04/15 01:07:56;;;;;;;8.80;6.22;;;;;;;12.07;37.69;99295.94;1712542;83;20931;-64
2022/04/15 01:10:26;;;;;;;6.78;6.08;;;;;;;12.05;37.79;99284.64;1713271;82;21470;-66
2022/04/15 01:12:57;;;;;;;9.40;5.92;;;;;;;11.99;37.93;99281.37;1714326;82;20947;-68
2022/04/15 01:15:27;;;;;;;8.50;6.22;;;;;;;11.97;37.99;99287.39;1708894;82;21043;-67
2022/04/15 01:17:55;;;;;;;8.88;6.10;;;;;;;11.94;37.99;99286.42;1713208;82;20963;-66
2022/04/15 01:20:22;;;;;;;7.05;5.80;;;;;;;11.89;37.99;99280.82;1713268;82;20891;-66
2022/04/15 01:23:11;;;;;;;8.25;6.58;;;;;;;11.90;37.96;99281.16;1714209;82;22083;-62
2022/04/15 01:25:38;;;;;;;8.33;5.83;;;;;;;11.87;37.93;99284.68;1707796;82;20951;-65
2022/04/15 01:28:06;;;;;;;8.55;6.30;;;;;;;11.86;37.90;99281.21;1715707;82;20888;-64
2022/04/15 01:30:32;;;;;;;6.78;5.53;;;;;;;11.90;37.82;99276.32;1714241;83;20904;-66
2022/04/15 01:32:59;;;;;;;8.13;5.80;;;;;;;11.91;37.78;99280.66;1712851;83;21124;-66
2022/04/15 01:35:25;;;;;;;8.50;6.10;;;;;;;11.91;37.75;99277.49;1718422;82;22170;-64
2022/04/15 01:37:52;;;;;;;7.08;5.80;;;;;;;11.94;37.76;99274.96;1712626;82;20923;-63
2022/04/15 01:40:19;;;;;;;8.73;6.17;;;;;;;11.92;37.74;99273.80;1714575;82;20927;-65
2022/04/15 01:42:47;;;;;;;11.15;5.62;;;;;;;11.92;37.72;99267.13;1717482;82;20952;-67
2022/04/15 01:45:14;;;;;;;13.40;6.53;;;;;;;11.92;37.71;99266.30;1714533;82;21550;-66
2022/04/15 01:47:40;;;;;;;8.43;6.20;;;;;;;11.90;37.70;99269.16;1712692;83;21523;-67
2022/04/15 01:50:08;;;;;;;13.45;5.87;;;;;;;11.89;37.67;99266.69;1703448;83;22294;-65
2022/04/15 01:52:35;;;;;;;11.38;6.22;;;;;;;11.89;37.62;99260.83;1713899;82;20924;-63
2022/04/15 01:55:01;;;;;;;10.90;6.47;;;;;;;11.88;37.56;99263.19;1717579;82;21097;-66
2022/04/15 01:57:29;;;;;;;14.70;7.35;;;;;;;11.88;37.52;99260.53;1729614;82;21117;-65
2022/04/15 01:59:56;;;;;;;10.20;5.83;;;;;;;11.91;37.49;99254.83;1715246;82;21155;-64
2022/04/15 02:02:23;;;;;;;12.53;7.03;;;;;;;11.93;37.42;99253.30;1709176;83;20990;-65
2022/04/15 02:04:51;;;;;;;10.05;5.97;;;;;;;11.93;37.35;99247.97;1712990;82;20958;-67
2022/04/15 02:07:17;;;;;;;10.65;6.75;;;;;;;11.93;37.30;99243.47;1722646;82;20946;-65
2022/04/15 02:09:43;;;;;;;12.88;6.92;;;;;;;11.93;37.34;99243.97;1721419;83;20989;-67
2022/04/15 02:12:10;;;;;;;10.80;6.45;;;;;;;11.93;37.29;99242.14;1718128;83;21260;-63
2022/04/15 02:14:37;;;;;;;9.88;6.50;;;;;;;11.90;37.32;99234.50;1682139;83;20966;-65
2022/04/15 02:17:05;;;;;;;9.93;7.15;;;;;;;11.87;37.32;99231.37;1714776;82;20915;-67
2022/04/15 02:19:32;;;;;;;6.85;6.08;;;;;;;11.87;37.34;99235.37;1714779;82;21438;-66
2022/04/15 02:21:58;;;;;;;9.95;6.28;;;;;;;11.84;37.28;99231.23;1717753;82;21798;-69
2022/04/15 02:24:25;;;;;;;9.53;6.05;;;;;;;11.82;37.19;99239.09;1702390;82;21184;-64
2022/04/15 02:26:51;;;;;;;7.83;6.33;;;;;;;11.80;37.14;99233.96;1711841;83;20880;-65
2022/04/15 02:29:18;;;;;;;8.55;5.97;;;;;;;11.82;37.09;99233.27;1714124;83;21047;-63
2022/04/15 02:31:45;;;;;;;9.95;5.53;;;;;;;11.83;37.05;99226.10;1714045;82;21640;-66
2022/04/15 02:34:12;;;;;;;8.55;6.25;;;;;;;11.81;37.02;99228.94;1712184;82;20969;-67
2022/04/15 02:36:39;;;;;;;9.20;5.65;;;;;;;11.81;36.95;99227.59;1681611;84;21245;-66
2022/04/15 02:39:06;;;;;;;10.08;5.87;;;;;;;11.80;36.86;99219.30;1684582;83;20995;-65
2022/04/15 02:41:34;;;;;;;10.25;5.50;;;;;;;11.80;36.78;99213.97;1713247;83;20995;-65
2022/04/15 02:44:01;;;;;;;7.72;5.20;;;;;;;11.81;36.71;99213.47;1725126;82;20986;-67
2022/04/15 02:46:27;;;;;;;12.07;6.70;;;;;;;11.80;36.71;99209.97;1714260;82;21374;-64
2022/04/15 02:48:54;;;;;;;11.20;6.45;;;;;;;11.76;36.73;99208.67;1713830;82;21109;-64
2022/04/15 02:51:20;;;;;;;12.58;6.85;;;;;;;11.78;36.62;99204.01;1714114;82;20876;-64
2022/04/15 02:53:48;;;;;;;11.65;6.87;;;;;;;11.78;36.51;99199.48;1704568;82;21512;-63
2022/04/15 02:56:15;;;;;;;13.83;7.87;;;;;;;11.76;36.45;99196.67;1714065;83;21090;-65
2022/04/15 02:58:41;;;;;;;12.18;7.87;;;;;;;11.76;36.44;99199.34;1712554;83;21001;-64
2022/04/15 03:01:08;;;;;;;10.00;6.95;;;;;;;11.77;36.35;99195.68;1721796;82;21261;-65
2022/04/15 03:03:35;;;;;;;10.30;7.08;;;;;;;11.76;36.32;99196.18;1716140;82;20982;-64
2022/04/15 03:06:04;;;;;;;11.30;6.97;;;;;;;11.76;36.27;99195.34;1693943;84;21058;-64
2022/04/15 03:08:31;;;;;;;10.10;6.70;;;;;;;11.78;36.21;99189.85;1694960;84;21430;-64
2022/04/15 03:11:00;;;;;;;9.25;6.92;;;;;;;11.76;36.18;99190.84;1697488;83;21046;-63
2022/04/15 03:13:27;;;;;;;8.15;6.78;;;;;;;11.75;36.14;99191.05;1692623;83;22466;-64
2022/04/15 03:15:56;;;;;;;11.05;6.15;;;;;;;11.74;36.15;99188.05;1694209;84;20999;-64
2022/04/15 03:18:22;;;;;;;10.08;6.75;;;;;;;11.75;36.11;99185.22;1695008;84;20942;-63
2022/04/15 03:20:50;;;;;;;10.30;7.05;;;;;;;11.77;36.10;99185.02;1693653;84;21001;-65
2022/04/15 03:23:22;;;;;;;13.65;6.37;;;;;;;11.75;36.11;99179.05;1694270;84;21018;-64
2022/04/15 03:25:47;;;;;;;9.13;6.50;;;;;;;11.73;36.09;99180.55;1692384;84;21362;-63
2022/04/15 03:28:15;;;;;;;11.28;6.12;;;;;;;11.74;36.01;99180.05;1693875;84;21547;-63
2022/04/15 03:30:41;;;;;;;12.23;5.70;;;;;;;11.73;35.94;99176.55;1693297;84;20986;-64
2022/04/15 03:33:08;;;;;;;8.15;5.95;;;;;;;11.74;35.83;99174.23;1682231;84;20924;-64
2022/04/15 03:35:35;;;;;;;9.55;5.92;;;;;;;11.77;35.72;99173.03;1706461;83;21019;-64
2022/04/15 03:38:02;;;;;;;10.10;6.62;;;;;;;11.81;35.65;99175.63;1711338;83;21257;-64
2022/04/15 03:40:29;;;;;;;11.78;6.50;;;;;;;11.86;35.52;99168.44;1711764;82;20981;-63
2022/04/15 03:42:56;;;;;;;9.23;6.53;;;;;;;11.94;35.31;99167.80;1720900;82;21066;-64
2022/04/15 03:45:23;;;;;;;10.13;7.45;;;;;;;12.02;35.16;99168.23;1712091;82;20989;-69
2022/04/15 03:47:52;;;;;;;12.80;7.80;;;;;;;12.11;35.01;99167.92;1710193;83;20932;-64
2022/04/15 03:50:18;;;;;;;13.25;7.87;;;;;;;12.22;34.74;99164.78;1694909;84;21242;-64
2022/04/15 03:52:47;;;;;;;11.70;7.70;;;;;;;12.35;34.53;99162.25;1691757;84;20984;-64
2022/04/15 03:55:18;;;;;;;11.30;6.90;;;;;;;12.50;34.31;99168.03;1711563;83;20984;-63
2022/04/15 03:57:45;;;;;;;10.80;6.37;;;;;;;12.66;34.04;99165.11;1695010;84;21003;-65
2022/04/15 04:00:18;;;;;;;8.15;6.47;;;;;;;12.82;33.70;99155.52;1694979;84;20895;-64
2022/04/15 04:02:49;;;;;;;10.23;6.05;;;;;;;12.98;33.43;99159.25;1691372;83;21139;-63
2022/04/15 04:05:17;;;;;;;8.95;5.83;;;;;;;13.16;33.14;99155.63;1678588;82;20908;-63
2022/04/15 04:07:45;;;;;;;10.25;5.75;;;;;;;13.30;32.85;99153.34;1714125;83;21066;-64
2022/04/15 04:10:13;;;;;;;9.38;5.47;;;;;;;13.46;32.56;99149.53;1713279;82;21399;-63
2022/04/15 04:12:42;;;;;;;6.37;4.83;;;;;;;13.63;32.29;99155.70;1726276;82;21045;-64
2022/04/15 04:15:11;;;;;;;8.45;5.58;;;;;;;13.80;31.98;99149.52;1703356;83;21240;-68
2022/04/15 04:17:38;;;;;;;6.22;4.87;;;;;;;13.99;31.66;99147.96;1713812;82;20935;-66
2022/04/15 04:20:07;;;;;;;7.25;4.80;;;;;;;14.17;31.33;99145.56;1714113;83;21489;-67
2022/04/15 04:22:35;;;;;;;7.67;5.28;;;;;;;14.32;31.03;99141.39;1718343;82;20927;-68
2022/04/15 04:25:03;;;;;;;7.35;5.03;;;;;;;14.52;30.76;99133.72;1714040;82;20990;-64
2022/04/15 04:27:31;;;;;;;9.85;5.40;;;;;;;14.73;30.39;99129.52;1713992;82;20920;-65
2022/04/15 04:29:57;;;;;;;10.32;5.17;;;;;;;14.92;29.93;99125.72;1712799;82;20971;-64
2022/04/15 04:32:24;;;;;;;12.70;5.37;;;;;;;15.06;29.56;99120.16;1718858;82;21045;-68
2022/04/15 04:34:51;;;;;;;6.40;5.05;;;;;;;15.26;29.26;99126.83;1710669;82;20936;-66
2022/04/15 04:37:19;;;;;;;9.35;5.10;;;;;;;15.52;28.97;99120.61;1712842;82;20943;-64
2022/04/15 04:39:46;;;;;;;10.35;6.90;;;;;;;15.84;28.55;99120.52;1714867;82;21156;-68
2022/04/15 04:42:12;;;;;;;9.43;6.53;;;;;;;16.14;28.09;99116.75;1708089;82;20954;-63
2022/04/15 04:44:39;;;;;;;6.35;5.75;;;;;;;16.47;27.71;99112.04;1717187;82;20948;-64
2022/04/15 04:47:09;;;;;;;9.65;6.17;;;;;;;16.80;27.29;99108.30;1714728;82;21488;-64
2022/04/15 04:49:37;;;;;;;11.10;5.40;;;;;;;17.13;26.81;99102.94;1692054;83;21071;-65
2022/04/15 04:52:06;;;;;;;8.65;5.40;;;;;;;17.44;26.23;99099.86;1717941;82;21170;-64
2022/04/15 04:54:32;;;;;;;10.20;5.17;;;;;;;17.73;25.72;99100.47;1701991;83;20936;-66
2022/04/15 04:57:00;;;;;;;9.05;5.15;;;;;;;18.02;25.36;99094.31;1713891;83;20957;-64
2022/04/15 04:59:28;;;;;;;10.45;5.65;;;;;;;18.33;24.97;99096.77;1713055;82;20991;-68
2022/04/15 05:01:55;;;;;;;9.08;5.08;;;;;;;18.59;24.59;99098.84;1720927;82;21063;-67
2022/04/15 05:04:23;;;;;;;10.30;5.83;;;;;;;18.83;24.27;99088.38;1723850;82;20982;-63
2022/04/15 05:06:50;;;;;;;12.63;5.78;;;;;;;18.99;24.01;99089.03;1715000;82;21000;-65
2022/04/15 05:09:16;;;;;;;9.00;5.35;;;;;;;19.18;23.76;99078.44;1716850;83;20991;-65
2022/04/15 05:11:44;;;;;;;13.30;5.83;;;;;;;19.35;23.75;99078.01;1715067;82;20958;-63
2022/04/15 05:14:11;;;;;;;13.53;5.80;;;;;;;19.60;23.40;99070.52;1709013;83;20939;-65
2022/04/15 05:16:39;;;;;;;12.23;6.08;;;;;;;19.86;22.93;99066.97;1718844;82;21430;-64
2022/04/15 05:19:05;;;;;;;11.15;5.53;;;;;;;20.16;22.79;99069.72;1714715;82;20924;-65
2022/04/15 05:21:34;;;;;;;6.50;5.67;;;;;;;20.53;22.48;99070.68;1722316;82;21021;-63
2022/04/15 05:24:01;;;;;;;7.62;5.35;;;;;;;20.90;22.21;99063.21;1712059;82;21727;-62
2022/04/15 05:26:29;;;;;;;7.67;5.60;;;;;;;21.26;21.64;99067.81;1709475;82;21038;-64
2022/04/15 05:28:55;;;;;;;11.85;5.37;;;;;;;21.53;21.33;99066.05;1710768;83;22001;-66
2022/04/15 05:31:22;;;;;;;9.40;5.50;;;;;;;21.74;20.99;99067.94;1719449;82;21477;-65
2022/04/15 05:33:48;;;;;;;7.47;4.80;;;;;;;21.85;20.75;99067.50;1676744;83;20990;-66
2022/04/15 05:36:16;;;;;;;5.42;4.85;;;;;;;22.01;20.67;99058.52;1717340;83;20995;-65
2022/04/15 05:38:43;;;;;;;8.73;5.40;;;;;;;22.08;20.59;99058.60;1715415;82;20955;-67
2022/04/15 05:41:10;;;;;;;8.55;5.60;;;;;;;22.28;20.38;99055.83;1714828;82;21158;-66
2022/04/15 05:43:37;;;;;;;11.10;5.12;;;;;;;22.46;20.29;99060.88;1716772;82;20988;-65
2022/04/15 05:46:04;;;;;;;7.17;5.20;;;;;;;22.70;20.15;99056.80;1713665;82;21512;-63
2022/04/15 05:48:31;;;;;;;6.50;4.95;;;;;;;22.90;19.96;99054.24;1716563;82;21016;-64
2022/04/15 05:50:58;;;;;;;11.00;5.37;;;;;;;23.10;19.86;99059.02;1704228;83;20951;-65
2022/04/15 05:53:26;;;;;;;11.35;5.03;;;;;;;23.43;19.89;99051.09;1711602;83;21273;-64
2022/04/15 05:55:52;;;;;;;8.30;5.00;;;;;;;23.85;19.40;99054.54;1710099;82;20988;-63
2022/04/15 05:58:19;;;;;;;9.40;5.22;;;;;;;24.12;19.07;99051.11;1725190;82;20994;-64
2022/04/15 06:00:46;;;;;;;9.53;5.17;;;;;;;24.28;18.92;99055.50;1722370;81;20998;-64
2022/04/15 06:03:14;;;;;;;7.17;4.97;;;;;;;24.49;18.82;99056.34;1713191;82;21018;-64
2022/04/15 06:05:42;;;;;;;8.20;4.87;;;;;;;24.91;18.72;99050.66;1715014;82;21054;-65
2022/04/15 06:08:09;;;;;;;12.65;4.70;;;;;;;25.30;18.34;99058.50;1710193;82;20907;-64
2022/04/15 06:10:37;;;;;;;7.53;5.10;;;;;;;25.65;18.05;99050.24;1714329;82;21462;-65
2022/04/15 06:13:08;;;;;;;11.75;5.50;;;;;;;25.99;17.80;99051.75;1709203;82;21101;-65
2022/04/15 06:15:36;;;;;;;11.05;5.37;;;;;;;26.23;17.53;99042.36;1721658;82;21504;-65
2022/04/15 06:18:04;;;;;;;8.63;5.35;;;;;;;26.41;17.21;99043.05;1676961;84;21155;-66
2022/04/15 06:20:32;;;;;;;11.95;5.03;;;;;;;26.52;17.20;99036.97;1700058;83;21407;-66
2022/04/15 06:22:59;;;;;;;7.97;5.25;;;;;;;26.81;16.93;99034.59;1727303;82;21586;-67
2022/04/15 06:25:26;;;;;;;7.62;5.28;;;;;;;27.02;16.54;99035.22;1713180;83;21014;-66
2022/04/15 06:27:54;;;;;;;14.23;5.35;;;;;;;27.24;16.41;99032.00;1707262;82;21065;-67
2022/04/15 06:30:21;;;;;;;9.23;4.85;;;;;;;27.55;16.07;99031.95;1706447;82;21260;-69
2022/04/15 06:32:48;;;;;;;8.38;4.70;;;;;;;27.78;15.81;99025.66;1716218;82;21043;-65
2022/04/15 06:35:15;;;;;;;7.75;5.30;;;;;;;27.92;15.63;99025.17;1715846;82;21112;-66
2022/04/15 06:37:41;;;;;;;6.72;4.75;;;;;;;28.06;15.51;99019.83;1727949;82;21650;-66
2022/04/15 06:40:10;;;;;;;12.73;5.25;;;;;;;28.21;15.50;99014.72;1710695;82;21007;-65
2022/04/15 06:42:37;;;;;;;5.42;4.92;;;;;;;28.35;15.39;99013.66;1722493;82;21228;-64
2022/04/15 06:45:05;;;;;;;7.05;4.75;;;;;;;28.42;15.36;99016.03;1719905;82;21009;-65
2022/04/15 06:47:33;;;;;;;6.58;5.35;;;;;;;28.39;15.42;99017.99;1715870;82;21626;-64
2022/04/15 06:49:59;;;;;;;10.23;5.50;;;;;;;28.33;15.38;99012.33;1723614;82;21317;-64
2022/04/15 06:52:26;;;;;;;7.40;4.92;;;;;;;28.09;15.61;99016.52;1717755;82;21125;-65
2022/04/15 06:54:52;;;;;;;7.35;4.92;;;;;;;27.84;15.75;99016.30;1713232;82;21219;-64
2022/04/15 06:57:20;;;;;;;6.37;5.35;;;;;;;27.70;15.92;99009.91;1712789;83;21571;-64
2022/04/15 06:59:48;;;;;;;6.85;4.95;;;;;;;27.39;16.16;99009.98;1713430;83;20987;-65
2022/04/15 07:02:15;;;;;;;6.78;5.40;;;;;;;27.50;16.25;99006.89;1729602;82;21505;-65
2022/04/15 07:04:42;;;;;;;8.40;4.95;;;;;;;27.77;16.16;99014.45;1717593;81;20997;-69
2022/04/15 07:07:08;;;;;;;6.47;4.90;;;;;;;28.03;15.90;99009.48;1717143;81;21280;-67
2022/04/15 07:09:35;;;;;;;9.20;5.00;;;;;;;28.33;15.78;99007.68;1683390;85;20955;-65
2022/04/15 07:12:04;;;;;;;7.15;4.92;;;;;;;28.75;15.51;99006.75;1682786;85;20993;-66
2022/04/15 07:14:33;;;;;;;6.08;5.10;;;;;;;29.14;15.29;99004.41;1683124;85;20971;-66
2022/04/15 07:17:01;;;;;;;6.58;4.45;;;;;;;29.50;14.98;99004.55;1701695;84;20926;-65
2022/04/15 07:19:27;;;;;;;5.95;5.37;;;;;;;29.80;14.77;99003.14;1701767;84;21544;-67
2022/04/15 07:21:54;;;;;;;4.97;4.25;;;;;;;30.02;14.58;98999.07;1655520;83;21627;-67
2022/04/15 07:24:21;;;;;;;6.12;4.53;;;;;;;30.30;14.44;98995.67;1655233;84;21045;-66
2022/04/15 07:26:48;;;;;;;6.53;4.50;;;;;;;30.64;14.25;98999.27;1744390;81;20895;-66
2022/04/15 07:29:14;;;;;;;6.95;4.37;;;;;;;30.93;14.20;98990.03;1723960;81;21571;-68
2022/04/15 07:31:42;;;;;;;8.03;4.80;;;;;;;31.32;14.04;98994.73;1721404;81;21151;-67
2022/04/15 07:34:08;;;;;;;6.05;4.12;;;;;;;31.70;13.81;99002.16;1721833;82;21405;-66
2022/04/15 07:39:06;;;;;;;5.45;3.90;;;;;;;31.96;13.29;98992.61;1722735;82;21438;-67
2022/04/15 07:41:36;;;;;;;4.92;4.05;;;;;;;31.93;13.32;98986.94;1722371;81;20923;-67
2022/04/15 07:44:05;;;;;;;8.20;4.28;;;;;;;31.97;13.34;98983.77;1721968;83;21131;-67
2022/04/15 07:46:33;;;;;;;5.25;3.55;;;;;;;31.95;13.36;98980.54;1721737;83;21617;-67
2022/04/15 07:48:59;;;;;;;5.25;3.85;;;;;;;31.90;13.50;98975.20;1722463;81;20899;-65
2022/04/15 07:51:27;;;;;;;6.72;4.53;;;;;;;32.07;13.46;98971.13;1722029;82;21052;-67
2022/04/15 07:53:53;;;;;;;4.28;3.83;;;;;;;32.31;13.49;98976.38;1721770;81;20998;-66
2022/04/15 07:56:19;;;;;;;6.28;3.70;;;;;;;32.72;13.23;98970.95;1721663;82;21972;-68
2022/04/15 07:58:48;;;;;;;8.90;3.85;;;;;;;33.16;13.15;98966.38;1721697;82;21006;-68
2022/04/15 08:01:15;;;;;;;6.65;3.55;;;;;;;33.73;12.84;98968.70;1722444;82;21000;-66
2022/04/15 08:03:42;;;;;;;6.25;4.00;;;;;;;34.32;12.45;98962.50;1707814;81;20994;-64
2022/04/15 08:06:08;;;;;;;5.75;3.92;;;;;;;34.86;11.79;98961.33;1683560;82;20943;-64
2022/04/15 08:08:35;;;;;;;3.55;2.98;;;;;;;35.12;11.39;98954.95;1718582;82;21330;-66
2022/04/15 08:11:01;;;;;;;4.70;3.35;;;;;;;35.13;11.16;98946.09;1685904;83;21567;-66
2022/04/15 08:13:28;;;;;;;5.42;4.00;;;;;;;34.95;11.29;98950.19;1716361;82;21013;-67
2022/04/15 08:15:54;;;;;;;6.22;3.83;;;;;;;34.95;11.33;98949.61;1718893;82;21089;-64
2022/04/15 08:18:22;;;;;;;4.75;3.92;;;;;;;34.83;11.36;98957.08;1663250;83;21053;-66
2022/04/15 08:20:51;;;;;;;6.58;3.80;;;;;;;34.88;11.42;98950.76;1678321;85;21062;-66
2022/04/15 08:23:19;;;;;;;6.42;3.70;;;;;;;35.09;11.47;98954.85;1712991;83;21556;-65
2022/04/15 08:25:45;;;;;;;5.45;3.87;;;;;;;35.32;11.16;98941.63;1698665;83;20985;-66
2022/04/15 08:28:12;;;;;;;4.40;3.60;;;;;;;35.43;11.05;98946.69;1721672;83;20889;-64
2022/04/15 08:30:40;;;;;;;5.25;3.80;;;;;;;35.19;11.13;98939.19;1721085;83;20956;-65
2022/04/15 08:33:06;;;;;;;4.08;3.70;;;;;;;35.04;11.29;98939.25;1720152;83;21779;-66
2022/04/15 08:35:34;;;;;;;5.10;3.90;;;;;;;34.98;11.30;98946.17;1685711;83;21087;-66
2022/04/15 08:38:01;;;;;;;4.05;3.65;;;;;;;34.88;11.40;98943.85;1722063;82;21035;-67
2022/04/15 08:40:31;;;;;;;3.92;3.47;;;;;;;34.86;11.42;98946.73;1695605;83;21014;-67
2022/04/15 08:42:57;;;;;;;6.45;3.70;;;;;;;34.74;11.45;98944.16;1713564;82;21027;-66
2022/04/15 08:45:27;;;;;;;6.67;3.27;;;;;;;34.78;11.44;98941.53;1716242;82;21139;-67
2022/04/15 08:48:01;;;;;;;3.87;3.15;;;;;;;34.72;11.43;98947.03;1712955;82;21651;-68
2022/04/15 08:50:29;;;;;;;4.53;3.52;;;;;;;34.08;11.66;98941.11;1713774;82;20975;-68
2022/04/15 08:52:58;;;;;;;5.37;3.27;;;;;;;33.58;12.14;98943.09;1710874;82;20990;-67
2022/04/15 08:55:27;;;;;;;3.42;3.12;;;;;;;33.41;12.19;98937.88;1706500;82;21078;-66
2022/04/15 08:57:55;;;;;;;3.77;3.30;;;;;;;33.08;12.53;98938.29;1711272;82;22150;-66
2022/04/15 09:00:22;;;;;;;3.72;3.15;;;;;;;33.02;12.71;98933.24;1686217;83;21073;-66
2022/04/15 09:02:53;;;;;;;4.10;3.70;;;;;;;33.06;12.89;98939.76;1713131;83;21067;-66
2022/04/15 09:05:22;;;;;;;6.78;4.45;;;;;;;33.06;12.85;98946.65;1707438;83;20993;-67
2022/04/15 09:07:48;;;;;;;4.17;3.65;;;;;;;33.07;12.81;98937.22;1689133;83;21076;-66
2022/04/15 09:10:18;;;;;;;7.62;4.28;;;;;;;33.02;12.99;98931.87;1719490;83;21274;-67
2022/04/15 09:12:46;;;;;;;5.72;4.00;;;;;;;32.94;13.14;98928.01;1719942;83;21036;-65
2022/04/15 09:15:15;;;;;;;6.72;4.12;;;;;;;32.73;13.33;98929.30;1720278;83;20932;-67
2022/04/15 09:17:52;;;;;;;7.85;4.67;;;;;;;32.47;13.45;98929.89;1728853;82;20895;-66
2022/04/15 09:20:21;;;;;;;5.72;4.22;;;;;;;31.78;13.97;98924.16;1729278;83;21010;-66
2022/04/15 09:22:53;;;;;;;8.80;4.72;;;;;;;31.20;14.35;98926.67;1729815;83;21527;-66
2022/04/15 09:25:30;;;;;;;5.37;4.30;;;;;;;30.36;14.89;98920.39;1729692;83;20859;-67
2022/04/15 09:27:57;;;;;;;4.58;4.17;;;;;;;29.56;15.49;98920.31;1700193;84;21030;-67
2022/04/15 09:30:40;;;;;;;6.40;4.50;;;;;;;28.86;16.21;98927.46;1699848;84;21602;-67
2022/04/15 09:33:09;;;;;;;6.58;4.45;;;;;;;28.24;16.84;98926.04;1700645;84;21564;-66
2022/04/15 09:35:36;;;;;;;5.83;4.83;;;;;;;27.69;17.40;98909.91;1670265;82;21182;-67
2022/04/15 09:38:04;;;;;;;5.45;4.83;;;;;;;27.49;17.80;98914.29;1718843;83;20887;-67
2022/04/15 09:40:35;;;;;;;9.73;4.58;;;;;;;27.19;18.07;98910.02;1687957;83;21588;-67
2022/04/15 09:43:02;;;;;;;6.05;4.70;;;;;;;26.93;18.42;98914.15;1726536;81;20950;-67
2022/04/15 09:45:36;;;;;;;5.83;4.85;;;;;;;26.81;18.64;98913.71;1724011;81;21033;-66
2022/04/15 09:48:08;;;;;;;6.03;4.55;;;;;;;27.10;18.58;98903.56;1725228;81;21228;-66
2022/04/15 09:50:42;;;;;;;5.60;4.22;;;;;;;27.65;18.30;98908.06;1723571;83;21046;-66
2022/04/15 09:53:14;;;;;;;8.53;4.92;;;;;;;28.45;17.87;98899.97;1723649;83;20942;-68
2022/04/15 09:55:48;;;;;;;6.15;5.10;;;;;;;29.12;17.35;98891.59;1723743;81;21053;-66
2022/04/15 09:58:18;;;;;;;5.53;4.83;;;;;;;29.68;17.05;98881.65;1758853;81;21558;-65
2022/04/15 10:00:48;;;;;;;5.30;4.58;;;;;;;30.22;16.59;98888.87;1758730;81;21134;-66
2022/04/15 10:03:26;;;;;;;8.13;4.85;;;;;;;30.43;16.26;98880.96;1759848;81;21033;-67
2022/04/15 10:05:56;;;;;;;7.28;4.25;;;;;;;30.30;16.42;98883.19;1721436;81;21038;-66
2022/04/15 10:08:27;;;;;;;5.37;4.10;;;;;;;30.19;16.43;98873.62;1689697;83;21106;-65
2022/04/15 10:10:55;;;;;;;7.60;4.80;;;;;;;29.83;16.82;98879.13;1672966;84;21090;-66
2022/04/15 10:13:28;;;;;;;6.15;5.10;;;;;;;29.36;17.13;98877.15;1657459;86;21058;-66
2022/04/15 10:15:52;;;;;;;8.25;4.53;;;;;;;28.92;17.50;98876.95;1661806;84;20912;-66
2022/04/15 10:18:21;;;;;;;6.15;4.25;;;;;;;28.50;17.89;98887.56;1683638;85;21011;-65
2022/04/15 10:20:51;;;;;;;7.20;4.83;;;;;;;28.01;18.24;98877.20;1683583;85;21003;-67
2022/04/15 10:23:17;;;;;;;5.83;5.20;;;;;;;27.49;18.79;98877.42;1683487;84;20948;-65
2022/04/15 10:25:46;;;;;;;6.75;5.47;;;;;;;27.04;19.36;98875.27;1668575;84;21233;-66
2022/04/15 10:28:15;;;;;;;9.58;6.22;;;;;;;26.66;19.81;98875.11;1669531;84;20982;-66
2022/04/15 10:30:55;;;;;;;5.55;5.03;;;;;;;26.44;20.17;98875.35;1656971;85;21143;-65
2022/04/15 10:33:30;;;;;;;7.30;5.00;;;;;;;26.34;20.44;98868.06;1667115;84;21159;-66
2022/04/15 10:36:00;;;;;;;7.28;5.50;;;;;;;26.38;20.73;98865.83;1714795;83;21133;-67
2022/04/15 10:38:26;;;;;;;12.37;6.22;;;;;;;26.44;20.75;98861.14;1666526;84;21290;-65
2022/04/15 10:40:53;;;;;;;8.08;6.28;;;;;;;26.50;20.92;98857.27;1688618;83;20903;-66
2022/04/15 10:43:27;;;;;;;6.20;5.60;;;;;;;26.56;20.87;98860.77;1641498;85;21006;-67
2022/04/15 10:46:14;;;;;;;6.58;5.87;;;;;;;26.45;20.82;98864.14;1686851;85;21399;-66
2022/04/15 10:48:41;;;;;;;12.45;6.28;;;;;;;26.24;20.99;98858.62;1686259;83;21097;-68
2022/04/15 10:51:27;;;;;;;10.63;6.28;;;;;;;25.97;21.30;98865.11;1687901;85;20922;-68
2022/04/15 10:53:54;;;;;;;7.12;5.95;;;;;;;25.71;21.66;98859.83;1686897;83;20974;-66
2022/04/15 10:56:23;;;;;;;8.83;6.15;;;;;;;25.54;21.95;98863.49;1659450;86;20907;-66
2022/04/15 11:01:52;;;;;;;;;;;;;;;25.11;22.73;98864.22;1664298;86;21026;-66
2022/04/15 11:04:23;;;;;;;9.18;7.60;;;;;;;24.83;23.09;98860.26;1672010;83;21187;-65
2022/04/15 11:06:51;;;;;;;8.23;7.37;;;;;;;24.66;23.42;98864.37;1670531;83;21018;-65
2022/04/15 11:09:22;;;;;;;14.45;9.68;;;;;;;24.62;23.75;98867.35;1702882;82;21051;-66
2022/04/15 11:11:53;;;;;;;14.15;9.33;;;;;;;24.62;23.69;98864.09;1676642;85;21019;-64
2022/04/15 11:14:31;;;;;;;9.73;8.83;;;;;;;24.60;23.75;98864.10;1683376;85;20912;-64
2022/04/15 11:16:59;;;;;;;9.70;8.70;;;;;;;24.56;23.88;98865.19;1717605;82;21585;-67
2022/04/15 11:19:26;;;;;;;14.07;9.43;;;;;;;24.55;24.05;98864.94;1712677;83;21018;-65
2022/04/15 11:21:54;;;;;;;14.25;9.78;;;;;;;24.55;24.37;98870.38;1713024;82;21084;-66
2022/04/15 11:24:27;;;;;;;12.07;9.78;;;;;;;24.62;24.64;98872.25;1715918;82;21070;-65
2022/04/15 11:27:03;;;;;;;15.90;10.70;;;;;;;24.74;24.71;98873.33;1714181;83;20928;-67
2022/04/15 11:29:32;;;;;;;22.87;10.65;;;;;;;24.86;24.77;98870.59;1713683;82;21133;-65
2022/04/15 11:32:05;;;;;;;18.52;10.10;;;;;;;24.97;24.71;98863.20;1713367;82;21598;-66
2022/04/15 11:34:33;;;;;;;11.80;9.95;;;;;;;25.05;24.49;98866.17;1706568;83;21069;-65
2022/04/15 11:37:05;;;;;;;22.02;12.30;;;;;;;25.09;24.26;98861.79;1696628;83;21151;-68
2022/04/15 11:39:36;;;;;;;16.20;10.75;;;;;;;25.17;24.05;98850.86;1710225;83;20864;-64
2022/04/15 11:42:10;;;;;;;16.57;10.80;;;;;;;25.22;23.87;98845.39;1703898;83;21145;-68